Airfield :
LOGIN :

Register | Disclaimer

   EN    FR    IT 

 










Legend :    VFR   Marginal VFR   IFR   Intensive IFR   Very Intensive IFR
Visi :
Ceiling :
>= 8 km
>= 3000ft
5 to 8 km
1000 to 3000 ft
1500m to 5 km
500 to 1000 ft
800 to 1500m
200 to 500 ft
< 800m
< 200 ft
Symbols :   Thunderstorms  Fog  Heavy snow  Heavy precipitations  Wind > 20 kt
SIGMETs :     Misc.  Thunderstorms  Icing  Turbulence  Mountain Waves  Volcanic Ashes






- Airport Elevation : 287 ft


LFRL - Lanveoc Poulmic

CURRENT METAR :
  • 211230Z AUTO 24016KT 9999 OVC006 15/14 Q1000 BECMG 22015G25KT BKN020

EXPIRED METARs :
  • 211200Z AUTO 23015KT 9999 BKN005 OVC009 15/14 Q0999 BECMG 22015G25KT BKN020
  • 211130Z AUTO 22012KT 9999 OVC005 14/14 Q0999 BECMG 22015G25KT BKN020
  • 211100Z AUTO 21010KT 9999 4300 OVC005 14/14 Q0998 TEMPO 3000 RA BKN020
  • 211030Z AUTO 22010KT 9000 OVC004 14/13 Q0998 TEMPO 3000 RA BECMG BKN007
  • 211000Z AUTO 23011KT 9999 BKN005 BKN020 OVC038 14/13 Q0997 TEMPO 3000 RA BKN020

TAF TAF LFRL
Valid from the 21 at 12:00 until the 22 at 12:00 UTC


211100Z 2112/2212 22015G25KT 9999 OVC005
BECMG 2112/2114 BKN020
TEMPO 2117/2120 4000 -SHRA BKN015TCU
BECMG 2200/2202 18005KT 3000 BR
TEMPO 2203/2206 0500 FG VV///
BECMG 2206/2209 OVC002
BECMG 2210/2212 9999 NSW SCT015



MET'MAP, your aeronautical weather chart ! - Copyright ORBIFLY December 2007 - Disclaimer

ORBIFLY MET'MAP TEAM :

Programming & Development : Alexandra Zaïnal
Concept & original design : Baudouin d'Aumeries
Assistance for programming : Marc-Olivier Méhu
Technical & hardware support : Manuel Goepfert

Contact : metmap@orbifly.com




SOURCES & CREDITS :

   NOAA